Time;durP1;ratioP1;P1;durP2;ratioP2;P2;SDS_P1;SDS_P2;PMS_P1;PMS_P2;Temp;Humidity;BMP_temperature;BMP_pressure;BME280_temperature;BME280_humidity;BME280_pressure;Samples;Min_cycle;Max_cycle;Signal;HPM_P1;HPM_P2
2022/11/29 00:01:46;;;;;;;32.92;16.65;;;12.30;76.80;;;;;;7372555;19;20081;-81
2022/11/29 00:04:14;;;;;;;36.72;17.50;;;12.30;76.80;;;;;;7373125;19;20109;-81
2022/11/29 00:06:43;;;;;;;33.30;16.20;;;12.30;76.90;;;;;;7370248;19;20020;-81
2022/11/29 00:09:14;;;;;;;42.75;16.27;;;12.30;76.90;;;;;;7393557;19;20469;-81
2022/11/29 00:14:29;;;;;;;32.63;15.02;;;12.30;76.90;;;;;;7372456;19;20010;-80
2022/11/29 00:17:00;;;;;;;30.55;14.02;;;12.30;77.00;;;;;;7371656;19;20584;-81
2022/11/29 00:19:29;;;;;;;;;;;12.30;76.90;;;;;;7374330;19;20451;-81
2022/11/29 00:21:58;;;;;;;23.05;11.63;;;12.30;76.90;;;;;;7374044;19;19907;-80
2022/11/29 00:24:27;;;;;;;24.88;12.25;;;12.30;76.70;;;;;;7377374;19;20014;-80
2022/11/29 00:26:56;;;;;;;30.75;11.50;;;12.20;76.60;;;;;;7396321;19;20014;-81
2022/11/29 00:29:27;;;;;;;23.25;11.48;;;12.20;76.70;;;;;;7373020;19;20442;-81
2022/11/29 00:31:56;;;;;;;22.67;12.75;;;12.20;76.80;;;;;;7377185;19;20089;-81
2022/11/29 00:34:25;;;;;;;23.65;12.27;;;12.30;76.70;;;;;;7382845;19;20081;-82
2022/11/29 00:36:53;;;;;;;26.65;13.07;;;12.30;76.90;;;;;;7391712;19;20438;-82
2022/11/29 00:39:22;;;;;;;28.65;13.52;;;12.30;76.90;;;;;;7391669;19;20027;-80
2022/11/29 00:41:51;;;;;;;27.25;13.88;;;12.30;76.80;;;;;;7412759;19;20035;-82
2022/11/29 00:44:19;;;;;;;28.90;14.93;;;12.30;76.80;;;;;;7388702;19;20014;-81
2022/11/29 00:46:51;;;;;;;22.67;11.55;;;12.30;76.80;;;;;;7390339;19;20019;-81
2022/11/29 00:49:20;;;;;;;29.20;11.68;;;12.30;76.80;;;;;;7387895;19;20011;-81
2022/11/29 00:51:49;;;;;;;27.35;10.20;;;12.30;76.80;;;;;;7381677;19;20075;-81
2022/11/29 00:54:18;;;;;;;24.00;11.77;;;12.30;76.70;;;;;;7400678;19;20014;-81
2022/11/29 00:56:46;;;;;;;30.95;14.73;;;12.30;76.70;;;;;;7382002;19;20015;-82
2022/11/29 00:59:15;;;;;;;30.67;13.32;;;12.20;76.60;;;;;;7385617;19;20027;-82
2022/11/29 01:01:44;;;;;;;27.08;14.30;;;12.20;76.70;;;;;;7385307;19;20094;-82
2022/11/29 01:04:15;;;;;;;31.98;14.15;;;12.10;76.90;;;;;;7381297;19;20027;-82
2022/11/29 01:06:44;;;;;;;28.42;12.63;;;12.20;77.00;;;;;;7386464;19;20027;-81
2022/11/29 01:09:13;;;;;;;17.73;11.05;;;12.10;77.00;;;;;;7419406;19;20010;-82
2022/11/29 01:11:41;;;;;;;24.25;10.82;;;12.10;77.00;;;;;;7410520;19;20461;-81
2022/11/29 01:14:10;;;;;;;20.40;10.05;;;12.20;77.00;;;;;;7405866;19;20505;-82
2022/11/29 01:16:39;;;;;;;22.73;9.90;;;12.10;76.90;;;;;;7380808;19;20042;-82
2022/11/29 01:19:08;;;;;;;36.10;12.27;;;12.10;76.80;;;;;;7380256;19;20010;-82
2022/11/29 01:21:40;;;;;;;20.60;10.77;;;12.20;76.70;;;;;;7378712;19;20022;-80
2022/11/29 01:24:09;;;;;;;22.70;11.05;;;12.10;77.00;;;;;;7403979;19;20011;-81
2022/11/29 01:26:37;;;;;;;25.27;9.70;;;12.10;76.50;;;;;;7381993;19;20036;-80
2022/11/29 01:29:06;;;;;;;18.00;9.45;;;12.20;76.70;;;;;;7380580;19;20030;-81
2022/11/29 01:31:37;;;;;;;14.82;6.63;;;12.20;76.60;;;;;;7381822;19;20018;-81
2022/11/29 01:34:07;;;;;;;17.92;7.82;;;12.20;76.60;;;;;;7380709;19;20453;-81
2022/11/29 01:36:38;;;;;;;17.92;6.85;;;12.20;76.50;;;;;;7382060;19;20035;-81
2022/11/29 01:39:08;;;;;;;13.05;7.38;;;12.20;76.30;;;;;;7400014;19;20062;-82
2022/11/29 01:41:39;;;;;;;19.75;8.40;;;12.10;76.30;;;;;;7381285;19;20501;-80
2022/11/29 01:44:29;;;;;;;21.65;9.52;;;12.10;76.40;;;;;;7376482;19;20022;-81
2022/11/29 01:46:59;;;;;;;19.48;9.27;;;12.10;76.40;;;;;;7379193;19;20007;-81
2022/11/29 01:49:31;;;;;;;18.73;9.10;;;12.20;76.50;;;;;;7379854;19;20026;-81
2022/11/29 01:52:06;;;;;;;21.92;8.18;;;12.10;76.40;;;;;;7377953;19;20018;-81
2022/11/29 01:54:40;;;;;;;19.08;8.60;;;12.10;76.50;;;;;;7376079;19;20018;-81
2022/11/29 01:57:10;;;;;;;13.20;7.63;;;12.20;76.60;;;;;;7401210;19;20038;-81
2022/11/29 01:59:42;;;;;;;17.30;7.40;;;12.20;76.50;;;;;;7378567;19;20019;-81
2022/11/29 02:02:15;;;;;;;17.85;8.15;;;12.20;76.60;;;;;;7377285;19;20108;-81
2022/11/29 02:04:46;;;;;;;21.20;8.38;;;12.10;76.40;;;;;;7379969;19;20105;-82
2022/11/29 02:07:17;;;;;;;18.35;8.48;;;12.10;76.40;;;;;;7380412;19;20039;-81
2022/11/29 02:09:46;;;;;;;;;;;12.10;76.40;;;;;;7379825;19;20090;-81
2022/11/29 02:12:28;;;;;;;16.40;8.05;;;12.20;76.50;;;;;;7401834;19;19935;-82
2022/11/29 02:15:29;;;;;;;17.13;7.60;;;12.10;76.40;;;;;;7380555;19;20022;-81
2022/11/29 02:18:06;;;;;;;21.30;8.63;;;12.10;76.70;;;;;;7380733;19;20830;-82
2022/11/29 02:20:59;;;;;;;19.63;7.82;;;12.10;76.70;;;;;;7384177;19;20351;-82
2022/11/29 02:24:12;;;;;;;17.27;7.22;;;12.10;76.90;;;;;;7383215;19;20018;-82
2022/11/29 02:27:01;;;;;;;17.75;7.28;;;12.10;76.90;;;;;;7379883;19;20018;-82
2022/11/29 02:29:46;;;;;;;24.13;6.88;;;12.10;77.00;;;;;;7379450;19;20093;-82
2022/11/29 02:32:54;;;;;;;17.88;7.13;;;12.10;77.00;;;;;;7381564;19;20340;-82
2022/11/29 02:35:39;;;;;;;17.80;7.70;;;12.10;76.90;;;;;;7399253;19;20007;-81
2022/11/29 02:38:46;;;;;;;16.70;7.30;;;12.10;76.90;;;;;;7405007;19;20019;-82
2022/11/29 02:41:27;;;;;;;16.25;6.90;;;12.10;76.90;;;;;;7378563;19;20063;-83
2022/11/29 02:44:22;;;;;;;14.83;7.40;;;12.10;76.70;;;;;;7379884;19;20334;-81
2022/11/29 02:47:02;;;;;;;14.25;6.78;;;12.10;76.70;;;;;;7384990;19;20295;-81
2022/11/29 02:49:57;;;;;;;16.10;6.78;;;12.00;76.60;;;;;;7378550;19;20014;-81
2022/11/29 02:52:37;;;;;;;18.63;7.00;;;12.00;76.70;;;;;;7384945;19;20011;-80
2022/11/29 02:55:11;;;;;;;14.57;6.25;;;12.00;76.90;;;;;;7383549;19;20031;-81
2022/11/29 02:57:43;;;;;;;12.48;5.72;;;12.00;77.10;;;;;;7384010;19;20011;-81
2022/11/29 03:00:15;;;;;;;16.92;5.90;;;12.00;77.30;;;;;;7399255;19;20078;-82
2022/11/29 03:02:52;;;;;;;16.27;5.13;;;12.00;77.40;;;;;;7374289;19;20025;-81
2022/11/29 03:05:26;;;;;;;12.10;4.55;;;12.00;77.40;;;;;;7374060;19;20497;-81
2022/11/29 03:08:11;;;;;;;10.30;4.55;;;12.00;77.50;;;;;;7372234;19;20026;-82
2022/11/29 03:10:51;;;;;;;10.13;3.95;;;12.00;77.60;;;;;;7373792;19;20389;-81
2022/11/29 03:13:26;;;;;;;12.20;4.50;;;12.10;77.60;;;;;;7372920;19;20722;-81
2022/11/29 03:16:00;;;;;;;12.68;3.90;;;12.10;77.60;;;;;;7373673;19;20086;-81
2022/11/29 03:18:39;;;;;;;10.07;4.03;;;12.10;77.70;;;;;;7373818;19;20090;-81
2022/11/29 03:21:16;;;;;;;10.75;3.80;;;12.10;77.60;;;;;;7397000;19;20078;-81
2022/11/29 03:23:51;;;;;;;10.13;4.22;;;12.10;77.60;;;;;;7376016;19;20090;-81
2022/11/29 03:26:26;;;;;;;10.65;3.53;;;12.20;77.60;;;;;;7375437;19;20030;-81
2022/11/29 03:29:05;;;;;;;12.18;4.10;;;12.10;77.50;;;;;;7372269;19;20108;-82
2022/11/29 03:31:38;;;;;;;15.75;4.03;;;12.10;77.60;;;;;;7375121;19;20018;-81
2022/11/29 03:34:16;;;;;;;8.80;3.63;;;12.10;77.70;;;;;;7385906;19;20028;-81
2022/11/29 03:36:53;;;;;;;18.13;4.68;;;12.10;77.80;;;;;;7402396;19;20018;-81
2022/11/29 03:39:34;;;;;;;16.83;5.03;;;12.10;77.80;;;;;;7381811;19;20082;-81
2022/11/29 03:42:08;;;;;;;12.68;4.93;;;12.10;78.70;;;;;;7396464;19;20082;-82
2022/11/29 03:44:41;;;;;;;13.50;6.05;;;12.20;77.90;;;;;;7375119;19;20014;-82
2022/11/29 03:47:14;;;;;;;16.23;7.18;;;12.20;77.90;;;;;;7373794;19;20062;-81
2022/11/29 03:49:49;;;;;;;13.05;6.53;;;12.20;77.70;;;;;;7374517;19;20089;-82
2022/11/29 03:52:21;;;;;;;27.10;7.53;;;12.20;77.80;;;;;;7373127;19;20106;-82
2022/11/29 03:55:03;;;;;;;18.50;6.45;;;12.20;77.70;;;;;;7375812;19;20031;-82
2022/11/29 03:57:36;;;;;;;29.50;6.63;;;12.20;77.70;;;;;;7373528;19;20109;-81
2022/11/29 04:00:09;;;;;;;13.20;5.40;;;12.20;77.70;;;;;;7414068;19;20006;-83
2022/11/29 04:03:11;;;;;;;18.65;4.82;;;12.10;77.70;;;;;;7409721;19;20010;-81
2022/11/29 04:05:50;;;;;;;;;;;12.10;78.00;;;;;;7390253;19;20043;-82
2022/11/29 04:08:51;;;;;;;11.68;4.50;;;12.20;78.20;;;;;;7380580;19;19925;-82
2022/11/29 04:11:57;;;;;;;9.82;4.50;;;12.10;78.20;;;;;;7379488;19;20050;-81
2022/11/29 04:15:08;;;;;;;12.80;5.05;;;12.20;78.30;;;;;;7378290;19;20088;-82
2022/11/29 04:18:09;;;;;;;13.38;5.38;;;12.20;78.30;;;;;;7383850;19;20007;-83
2022/11/29 04:21:19;;;;;;;12.95;4.60;;;12.20;78.30;;;;;;7378934;19;20015;-83
2022/11/29 04:24:00;;;;;;;11.75;5.40;;;12.20;78.30;;;;;;7381618;19;20021;-82
2022/11/29 04:26:59;;;;;;;13.27;5.70;;;12.20;78.40;;;;;;7379651;19;20031;-83
2022/11/29 04:29:54;;;;;;;14.30;6.07;;;12.20;78.30;;;;;;7377455;19;20017;-82
2022/11/29 04:32:56;;;;;;;14.23;6.72;;;12.20;78.20;;;;;;7379047;19;20082;-82
2022/11/29 04:35:36;;;;;;;16.92;7.40;;;12.20;78.20;;;;;;7379964;19;20018;-83
2022/11/29 04:38:44;;;;;;;18.40;7.00;;;12.20;78.00;;;;;;7379630;19;20032;-83
2022/11/29 04:41:27;;;;;;;18.30;6.45;;;12.20;78.00;;;;;;7378328;19;20455;-82
2022/11/29 04:44:13;;;;;;;14.52;7.20;;;12.20;78.10;;;;;;7378202;19;20036;-82
2022/11/29 04:47:04;;;;;;;15.15;6.88;;;12.20;78.20;;;;;;7377983;19;20890;-82
2022/11/29 04:49:56;;;;;;;19.27;6.65;;;12.20;78.20;;;;;;7378980;19;20022;-82
2022/11/29 04:52:47;;;;;;;20.48;6.57;;;12.30;78.30;;;;;;7384433;19;20121;-82
2022/11/29 04:55:29;;;;;;;11.77;6.30;;;12.30;78.30;;;;;;7388701;19;20054;-83
2022/11/29 04:57:59;;;;;;;;;;;12.30;78.20;;;;;;7390435;19;20034;-82
2022/11/29 05:00:36;;;;;;;17.33;7.63;;;12.40;78.20;;;;;;7386527;19;19947;-82
2022/11/29 05:03:13;;;;;;;16.75;7.10;;;12.30;78.00;;;;;;7409507;19;20048;-82
2022/11/29 05:05:47;;;;;;;16.20;7.03;;;12.30;78.00;;;;;;7385818;19;20018;-82
2022/11/29 05:08:29;;;;;;;16.58;7.32;;;12.30;78.10;;;;;;7377543;19;20073;-82
2022/11/29 05:11:07;;;;;;;17.38;7.00;;;12.30;78.00;;;;;;7378818;19;20129;-82
2022/11/29 05:13:46;;;;;;;18.65;6.60;;;12.30;77.90;;;;;;7378680;19;20051;-83
2022/11/29 05:16:33;;;;;;;17.73;6.70;;;12.30;78.10;;;;;;7382465;19;20078;-82
2022/11/29 05:19:30;;;;;;;16.50;6.47;;;12.30;78.30;;;;;;7385696;19;20079;-82
2022/11/29 05:22:10;;;;;;;14.57;6.70;;;12.30;78.30;;;;;;7386476;19;20074;-83
2022/11/29 05:24:53;;;;;;;13.38;6.45;;;12.30;78.20;;;;;;7392908;19;20027;-82
2022/11/29 05:27:33;;;;;;;20.35;7.43;;;12.30;78.00;;;;;;7384171;19;20011;-80
2022/11/29 05:30:07;;;;;;;15.50;8.05;;;12.30;77.90;;;;;;7421268;19;20011;-82
2022/11/29 05:32:46;;;;;;;16.25;6.95;;;12.20;77.70;;;;;;7412750;19;20025;-81
2022/11/29 05:35:53;;;;;;;14.02;7.43;;;12.20;77.80;;;;;;7393765;19;20010;-82
2022/11/29 05:38:43;;;;;;;15.10;6.05;;;12.20;78.00;;;;;;7391678;19;20082;-81
2022/11/29 05:41:29;;;;;;;23.30;5.03;;;12.10;78.20;;;;;;7397056;19;20018;-82
2022/11/29 05:44:09;;;;;;;11.23;3.67;;;12.10;78.20;;;;;;7398820;19;20071;-81
2022/11/29 05:46:47;;;;;;;17.35;4.53;;;12.10;78.20;;;;;;7399109;19;20018;-81
2022/11/29 05:49:30;;;;;;;20.77;4.95;;;12.10;78.20;;;;;;7400389;19;20007;-81
2022/11/29 05:52:15;;;;;;;18.67;5.20;;;12.00;78.10;;;;;;7383963;19;20066;-81
2022/11/29 05:54:52;;;;;;;12.73;4.43;;;12.10;78.10;;;;;;7385397;19;20018;-81
2022/11/29 05:57:43;;;;;;;15.68;4.93;;;12.10;78.00;;;;;;7387815;19;20024;-81
2022/11/29 06:00:15;;;;;;;14.70;4.72;;;12.10;77.90;;;;;;7397563;19;20015;-82
2022/11/29 06:02:52;;;;;;;19.60;6.22;;;12.00;77.70;;;;;;7377883;19;20007;-82
2022/11/29 06:05:33;;;;;;;14.65;5.28;;;12.00;77.90;;;;;;7377753;19;20022;-82
2022/11/29 06:08:06;;;;;;;12.15;4.65;;;11.90;78.00;;;;;;7376466;19;20017;-83
2022/11/29 06:10:39;;;;;;;13.70;4.70;;;11.90;78.00;;;;;;7379099;19;20093;-83
2022/11/29 06:13:21;;;;;;;13.80;4.25;;;11.90;78.00;;;;;;7381330;19;20091;-84
2022/11/29 06:16:21;;;;;;;12.07;4.10;;;11.90;77.90;;;;;;7381670;19;20498;-83
2022/11/29 06:19:25;;;;;;;18.98;5.30;;;11.90;78.10;;;;;;7378069;19;20042;-82
2022/11/29 06:22:07;;;;;;;14.65;4.32;;;11.90;78.00;;;;;;7378600;19;20017;-82
2022/11/29 06:24:50;;;;;;;17.70;4.78;;;11.90;77.90;;;;;;7377527;19;20078;-81
2022/11/29 06:27:42;;;;;;;17.77;4.40;;;11.80;77.80;;;;;;7398257;19;20668;-82
2022/11/29 06:30:14;;;;;;;13.70;4.25;;;11.90;77.90;;;;;;7377297;19;20041;-81
2022/11/29 06:32:50;;;;;;;16.50;4.95;;;11.80;77.60;;;;;;7375665;19;20018;-82
2022/11/29 06:35:34;;;;;;;8.93;4.40;;;11.90;77.60;;;;;;7376820;19;20027;-81
2022/11/29 06:38:11;;;;;;;21.08;7.05;;;11.90;77.50;;;;;;7376729;19;20022;-82
2022/11/29 06:40:41;;;;;;;17.25;7.72;;;11.90;77.40;;;;;;7378040;19;20031;-81
2022/11/29 06:43:10;;;;;;;16.98;6.60;;;11.80;77.40;;;;;;7378628;19;20711;-81
2022/11/29 06:45:40;;;;;;;20.52;7.75;;;11.80;77.50;;;;;;7378488;19;20089;-81
2022/11/29 06:48:14;;;;;;;21.95;8.30;;;11.80;77.70;;;;;;7396003;19;20035;-81
2022/11/29 06:50:49;;;;;;;15.30;7.55;;;11.80;78.50;;;;;;7378543;19;20044;-82
2022/11/29 06:53:26;;;;;;;21.65;9.02;;;11.80;77.70;;;;;;7383715;19;20023;-82
2022/11/29 06:56:04;;;;;;;22.27;8.68;;;11.80;77.60;;;;;;7403272;19;20003;-83
2022/11/29 06:58:44;;;;;;;18.90;9.00;;;11.80;77.60;;;;;;7406707;19;20018;-83
2022/11/29 07:01:22;;;;;;;17.38;7.63;;;11.70;77.60;;;;;;7388900;19;20035;-82
2022/11/29 07:04:03;;;;;;;15.57;7.50;;;11.70;77.80;;;;;;7384849;19;20018;-82
2022/11/29 07:06:35;;;;;;;14.60;6.28;;;11.70;77.90;;;;;;7386327;19;20067;-82
2022/11/29 07:09:17;;;;;;;14.35;7.28;;;11.70;78.10;;;;;;7404186;19;20054;-82
2022/11/29 07:11:48;;;;;;;22.23;6.90;;;11.60;78.00;;;;;;7378059;19;20019;-82
2022/11/29 07:14:17;;;;;;;19.85;6.97;;;11.70;77.80;;;;;;7375580;19;20028;-82
2022/11/29 07:16:53;;;;;;;18.00;7.22;;;11.70;77.70;;;;;;7376964;19;20074;-81
2022/11/29 07:19:30;;;;;;;22.40;8.32;;;11.60;77.70;;;;;;7379429;19;20103;-81
2022/11/29 07:22:09;;;;;;;18.60;8.50;;;11.60;77.60;;;;;;7387605;19;20095;-81
2022/11/29 07:24:53;;;;;;;16.17;7.65;;;11.50;77.70;;;;;;7395351;19;20022;-81
2022/11/29 07:27:29;;;;;;;15.95;7.72;;;11.50;78.10;;;;;;7398140;19;20022;-80
2022/11/29 07:30:14;;;;;;;16.08;7.40;;;11.50;78.10;;;;;;7420283;19;20443;-82
2022/11/29 07:32:54;;;;;;;13.75;7.32;;;11.50;78.10;;;;;;7378685;19;20078;-79
2022/11/29 07:35:33;;;;;;;19.88;6.90;;;11.50;77.90;;;;;;7384376;19;20014;-83
2022/11/29 07:38:11;;;;;;;15.52;6.63;;;11.50;77.70;;;;;;7383286;19;20058;-82
2022/11/29 07:40:49;;;;;;;12.95;6.85;;;11.50;77.50;;;;;;7382481;19;20022;-83
2022/11/29 07:43:33;;;;;;;13.95;6.63;;;11.40;77.40;;;;;;7383225;19;20022;-77
2022/11/29 07:46:02;;;;;;;18.58;7.20;;;11.40;77.30;;;;;;7379451;19;20606;-78
2022/11/29 07:48:31;;;;;;;14.77;6.03;;;11.40;77.10;;;;;;7371705;19;20112;-75
2022/11/29 14:52:20;;;;;;;34.97;18.15;;;13.20;71.50;;;;;;7311061;19;20032;-79
2022/11/29 14:55:30;;;;;;;48.88;17.77;;;13.20;71.60;;;;;;7376762;19;20014;-79
2022/11/29 14:58:18;;;;;;;31.27;17.20;;;13.30;71.60;;;;;;7365622;19;20090;-77
2022/11/29 15:01:04;;;;;;;30.33;14.98;;;13.20;71.50;;;;;;7358968;19;20014;-78
2022/11/29 15:03:36;;;;;;;25.85;12.88;;;13.20;71.00;;;;;;7371860;19;20026;-78
2022/11/29 15:06:19;;;;;;;31.27;12.90;;;13.20;70.90;;;;;;7395105;19;20022;-79
2022/11/29 15:08:59;;;;;;;25.60;12.75;;;13.20;71.00;;;;;;7374811;19;20025;-79
2022/11/29 15:11:37;;;;;;;25.88;12.00;;;13.20;71.10;;;;;;7383047;19;20022;-79
2022/11/29 15:14:08;;;;;;;24.60;12.27;;;13.10;70.80;;;;;;7384531;19;20022;-79
2022/11/29 15:16:49;;;;;;;28.40;11.43;;;13.20;70.80;;;;;;7372359;19;20652;-78
2022/11/29 15:19:44;;;;;;;29.77;11.30;;;13.10;70.50;;;;;;7372916;19;20045;-79
2022/11/29 15:22:18;;;;;;;27.45;12.75;;;13.10;70.30;;;;;;7377216;19;20034;-80
2022/11/29 15:24:58;;;;;;;29.40;13.23;;;13.10;70.00;;;;;;7376231;19;20018;-79
2022/11/29 15:27:27;;;;;;;24.58;11.48;;;13.10;70.30;;;;;;7373873;19;20023;-79
2022/11/29 15:30:00;;;;;;;24.48;11.65;;;13.10;70.10;;;;;;7393159;19;20024;-80
2022/11/29 15:32:32;;;;;;;24.00;11.07;;;13.10;70.20;;;;;;7372635;19;20026;-81
2022/11/29 15:35:01;;;;;;;24.73;11.85;;;13.10;70.30;;;;;;7374849;19;20046;-80
2022/11/29 15:37:44;;;;;;;33.67;12.82;;;13.10;70.50;;;;;;7371709;19;20018;-80
2022/11/29 15:40:20;;;;;;;30.88;11.95;;;13.00;70.70;;;;;;7373934;19;20033;-79
2022/11/29 15:42:52;;;;;;;22.23;10.90;;;13.00;70.80;;;;;;7370564;19;20021;-79
2022/11/29 15:45:31;;;;;;;28.65;11.88;;;13.00;71.60;;;;;;7384303;19;20018;-79
2022/11/29 15:48:17;;;;;;;31.58;15.52;;;13.00;70.50;;;;;;7394724;19;20030;-80
2022/11/29 15:50:54;;;;;;;22.75;10.65;;;12.90;70.60;;;;;;7372963;19;20019;-80
2022/11/29 15:53:29;;;;;;;22.80;9.55;;;13.00;70.80;;;;;;7371655;19;20022;-80
2022/11/29 15:56:03;;;;;;;18.88;9.73;;;12.90;70.60;;;;;;7373771;19;20026;-79
2022/11/29 15:58:35;;;;;;;19.23;9.23;;;12.90;70.40;;;;;;7372610;19;20014;-80
2022/11/29 16:01:06;;;;;;;23.80;9.02;;;12.90;70.20;;;;;;7373898;19;20039;-80
2022/11/29 16:03:37;;;;;;;18.63;8.97;;;12.90;70.10;;;;;;7370368;19;20098;-79
2022/11/29 16:06:10;;;;;;;24.55;8.38;;;13.00;70.20;;;;;;7394457;19;20283;-80
2022/11/29 16:08:44;;;;;;;23.45;8.25;;;13.00;70.30;;;;;;7373609;19;20015;-80
2022/11/29 16:11:19;;;;;;;21.95;9.57;;;13.00;70.30;;;;;;7370732;19;20365;-79
2022/11/29 16:14:05;;;;;;;19.92;9.13;;;12.90;70.00;;;;;;7371768;19;20026;-79
2022/11/29 16:16:35;;;;;;;20.83;9.07;;;12.90;70.00;;;;;;7369894;19;20006;-78
2022/11/29 16:19:11;;;;;;;23.65;10.20;;;13.00;70.30;;;;;;7369923;19;20038;-82
2022/11/29 16:21:40;;;;;;;20.95;10.25;;;12.90;70.30;;;;;;7372604;19;20095;-79
2022/11/29 16:24:21;;;;;;;27.20;11.27;;;13.00;70.60;;;;;;7398613;19;20333;-80
2022/11/29 16:26:53;;;;;;;23.55;11.50;;;12.90;70.90;;;;;;7374618;19;20018;-80
2022/11/29 16:29:30;;;;;;;26.00;11.82;;;13.00;71.20;;;;;;7376877;19;20035;-81
2022/11/29 16:31:59;;;;;;;26.83;12.38;;;13.00;71.50;;;;;;7379849;19;20023;-87
2022/11/29 16:34:32;;;;;;;24.77;12.05;;;13.00;71.80;;;;;;7378366;19;20026;-82
2022/11/29 16:37:04;;;;;;;25.60;8.93;;;13.00;71.80;;;;;;7395196;19;20006;-80
2022/11/29 16:39:33;;;;;;;15.90;7.93;;;13.00;71.80;;;;;;7402703;19;20019;-84
2022/11/29 16:42:17;;;;;;;24.55;8.85;;;13.00;72.00;;;;;;7413097;19;20018;-86
2022/11/29 16:45:12;;;;;;;19.63;8.82;;;12.90;72.10;;;;;;7383364;19;20074;-85
2022/11/29 16:47:51;;;;;;;19.95;8.15;;;12.90;72.20;;;;;;7381846;19;20022;-81
2022/11/29 16:50:22;;;;;;;24.35;9.32;;;12.90;72.40;;;;;;7382344;19;20045;-84
2022/11/29 16:52:51;;;;;;;29.37;8.20;;;13.00;72.50;;;;;;7379819;19;20116;-83
2022/11/29 16:55:20;;;;;;;26.48;7.30;;;13.00;72.50;;;;;;7379944;19;20370;-85
2022/11/29 16:57:52;;;;;;;20.10;7.38;;;13.00;72.60;;;;;;7379051;19;20021;-85
2022/11/29 17:00:25;;;;;;;;;;;12.90;72.60;;;;;;7392044;19;20022;-85
2022/11/29 17:02:54;;;;;;;16.88;7.85;;;13.00;72.80;;;;;;7394542;19;19947;-87
2022/11/29 17:05:23;;;;;;;20.38;7.60;;;13.00;73.30;;;;;;7381262;19;20011;-85
2022/11/29 17:07:52;;;;;;;16.13;6.45;;;12.90;72.40;;;;;;7379096;19;20010;-86
2022/11/29 17:10:25;;;;;;;18.77;7.45;;;12.80;72.50;;;;;;7376832;19;20014;-84
2022/11/29 17:12:57;;;;;;;18.95;7.00;;;12.80;72.80;;;;;;7378031;19;20011;-87
2022/11/29 17:15:25;;;;;;;22.83;7.47;;;12.80;73.10;;;;;;7381482;19;20016;-82
2022/11/29 17:17:54;;;;;;;17.70;7.18;;;12.70;73.20;;;;;;7403857;19;20050;-84
2022/11/29 17:20:23;;;;;;;18.88;7.80;;;12.70;73.40;;;;;;7384799;19;20026;-83
2022/11/29 17:22:52;;;;;;;14.35;7.68;;;12.60;73.20;;;;;;7388811;19;20015;-83
2022/11/29 17:25:20;;;;;;;22.88;8.50;;;12.60;73.30;;;;;;7385492;19;20090;-83
2022/11/29 17:27:49;;;;;;;20.50;8.65;;;12.50;73.00;;;;;;7380553;19;20015;-83
2022/11/29 17:30:21;;;;;;;17.50;8.82;;;12.40;73.20;;;;;;7400826;19;20418;-82
2022/11/29 17:32:50;;;;;;;23.33;9.73;;;12.40;73.30;;;;;;7382472;19;20011;-84
2022/11/29 17:35:18;;;;;;;22.48;10.23;;;12.30;73.20;;;;;;7382858;19;20014;-84
2022/11/29 17:37:47;;;;;;;27.55;10.20;;;12.30;73.60;;;;;;7386721;19;20068;-81
2022/11/29 17:40:16;;;;;;;24.40;11.55;;;12.20;73.90;;;;;;7378535;19;20018;-81
2022/11/29 17:42:47;;;;;;;29.80;10.93;;;12.20;73.90;;;;;;7379137;19;20019;-82
2022/11/29 17:45:16;;;;;;;34.10;13.80;;;12.20;74.10;;;;;;7399970;19;20433;-80
2022/11/29 17:47:50;;;;;;;28.73;12.73;;;12.30;74.20;;;;;;7377405;19;20020;-79
2022/11/29 17:50:19;;;;;;;30.42;13.15;;;12.30;74.40;;;;;;7379923;19;20477;-80
2022/11/29 17:52:48;;;;;;;31.63;13.00;;;12.40;74.50;;;;;;7377111;19;20019;-80
2022/11/29 17:55:16;;;;;;;36.00;15.70;;;12.40;74.50;;;;;;7381185;19;20086;-79
2022/11/29 17:57:45;;;;;;;34.65;14.48;;;12.40;74.20;;;;;;7375860;19;20022;-80
2022/11/29 18:00:15;;;;;;;38.53;14.75;;;12.40;74.10;;;;;;7397992;19;20093;-79
2022/11/29 18:02:46;;;;;;;33.25;13.50;;;12.50;74.10;;;;;;7378799;19;20022;-79
2022/11/29 18:05:15;;;;;;;28.40;12.73;;;12.50;74.10;;;;;;7388179;19;20030;-79
2022/11/29 18:10:28;;;;;;;27.02;12.77;;;12.50;73.60;;;;;;7386748;19;20014;-83
2022/11/29 18:12:57;;;;;;;28.98;13.13;;;12.50;73.60;;;;;;7379290;19;20022;-85
2022/11/29 18:15:26;;;;;;;34.65;14.00;;;12.50;73.60;;;;;;7384741;19;20018;-81
2022/11/29 18:17:57;;;;;;;28.60;13.70;;;12.50;73.60;;;;;;7406995;19;20010;-82
2022/11/29 18:20:27;;;;;;;37.55;14.90;;;12.50;73.50;;;;;;7394251;19;20018;-80
2022/11/29 18:22:55;;;;;;;40.90;14.30;;;12.50;73.50;;;;;;7392676;19;20042;-80
2022/11/29 18:25:24;;;;;;;34.45;16.25;;;12.50;73.60;;;;;;7375571;19;20464;-79
2022/11/29 18:27:53;;;;;;;33.50;16.05;;;12.40;73.70;;;;;;7380317;19;20031;-83
2022/11/29 18:30:21;;;;;;;33.80;14.02;;;12.40;74.00;;;;;;7385849;19;20704;-81
2022/11/29 18:32:50;;;;;;;31.40;13.40;;;12.50;74.20;;;;;;7399240;19;20010;-82
2022/11/29 18:35:21;;;;;;;33.22;14.13;;;12.40;74.20;;;;;;7379973;19;20191;-85
2022/11/29 18:37:50;;;;;;;31.00;13.88;;;12.40;74.40;;;;;;7382477;19;20031;-84
2022/11/29 18:40:19;;;;;;;36.35;15.10;;;12.50;75.20;;;;;;7381803;19;20039;-83
2022/11/29 18:42:49;;;;;;;31.52;14.05;;;12.50;74.30;;;;;;7374554;19;20042;-83
2022/11/29 18:45:18;;;;;;;35.33;14.77;;;12.50;74.10;;;;;;7399471;19;20014;-84
2022/11/29 18:47:47;;;;;;;28.23;14.00;;;12.50;74.10;;;;;;7375807;19;20010;-81
2022/11/29 18:50:16;;;;;;;34.03;12.68;;;12.40;74.20;;;;;;7377964;19;20030;-81
2022/11/29 18:52:47;;;;;;;24.20;12.05;;;12.40;74.40;;;;;;7382161;19;20014;-81
2022/11/29 18:55:16;;;;;;;32.17;11.95;;;12.40;74.50;;;;;;7381545;19;20034;-82
2022/11/29 18:57:44;;;;;;;29.08;12.48;;;12.50;75.40;;;;;;7384922;19;20076;-81
2022/11/29 19:00:15;;;;;;;32.20;12.63;;;12.50;74.60;;;;;;7404509;19;20011;-82
2022/11/29 19:02:44;;;;;;;33.35;13.23;;;12.50;74.80;;;;;;7384847;19;20018;-80
2022/11/29 19:05:12;;;;;;;33.65;13.18;;;12.50;74.70;;;;;;7382682;19;20014;-81
2022/11/29 19:07:41;;;;;;;27.33;13.65;;;12.50;74.80;;;;;;7384590;19;20021;-81
2022/11/29 19:10:13;;;;;;;35.25;13.38;;;12.60;74.50;;;;;;7383153;19;20050;-81
2022/11/29 19:12:42;;;;;;;29.67;13.75;;;12.50;74.60;;;;;;7379549;19;20007;-79
2022/11/29 19:15:12;;;;;;;29.55;14.15;;;12.50;74.80;;;;;;7398251;19;20014;-80
2022/11/29 19:17:41;;;;;;;32.05;14.07;;;12.50;75.00;;;;;;7374975;19;20086;-80
2022/11/29 19:20:14;;;;;;;29.65;13.55;;;12.60;75.00;;;;;;7374685;19;20102;-80
2022/11/29 19:22:42;;;;;;;44.08;17.90;;;12.60;75.00;;;;;;7373538;19;20833;-80
2022/11/29 19:25:14;;;;;;;46.13;22.80;;;12.60;75.00;;;;;;7377354;19;20022;-80
2022/11/29 19:27:43;;;;;;;;;;;12.60;75.00;;;;;;7378324;19;20464;-80
2022/11/29 19:30:15;;;;;;;61.15;24.60;;;12.70;75.00;;;;;;7400670;19;20306;-81
2022/11/29 19:32:43;;;;;;;53.85;24.33;;;12.70;74.90;;;;;;7377504;19;20026;-81
2022/11/29 19:35:12;;;;;;;53.47;23.50;;;12.70;75.00;;;;;;7392060;19;20014;-81
2022/11/29 19:37:41;;;;;;;51.33;24.10;;;12.70;75.90;;;;;;7383599;19;20093;-81
2022/11/29 19:40:13;;;;;;;50.63;23.83;;;12.70;75.10;;;;;;7372017;19;20069;-80
2022/11/29 19:42:42;;;;;;;51.22;22.75;;;12.70;75.20;;;;;;7370988;19;20030;-81
2022/11/29 19:45:13;;;;;;;59.83;22.85;;;12.70;75.20;;;;;;7389649;19;20249;-81
2022/11/29 19:47:42;;;;;;;48.60;22.38;;;12.70;75.20;;;;;;7374380;19;20014;-80
2022/11/29 19:50:11;;;;;;;52.75;23.27;;;12.70;75.00;;;;;;7376608;19;20022;-81
2022/11/29 19:52:40;;;;;;;60.72;22.65;;;12.70;75.10;;;;;;7373613;19;20460;-80
2022/11/29 19:55:09;;;;;;;52.90;23.13;;;12.70;75.80;;;;;;7371953;19;20014;-80
2022/11/29 19:57:40;;;;;;;49.17;22.98;;;12.70;75.00;;;;;;7375145;19;20019;-81
2022/11/29 20:00:10;;;;;;;51.33;22.83;;;12.70;75.00;;;;;;7394095;19;20022;-81
2022/11/29 20:02:39;;;;;;;48.88;22.48;;;12.70;75.00;;;;;;7378644;19;20011;-80
2022/11/29 20:05:10;;;;;;;44.63;21.50;;;12.70;74.90;;;;;;7378676;19;20093;-81
2022/11/29 20:07:39;;;;;;;49.30;23.13;;;12.70;74.80;;;;;;7373389;19;20026;-80
2022/11/29 20:10:09;;;;;;;49.72;22.50;;;12.70;74.80;;;;;;7375007;19;20530;-79
2022/11/29 20:12:40;;;;;;;45.92;22.20;;;12.70;74.60;;;;;;7370366;19;20062;-80
2022/11/29 20:15:10;;;;;;;46.55;22.73;;;12.70;74.60;;;;;;7396652;19;20019;-79
2022/11/29 20:17:39;;;;;;;50.72;22.52;;;12.70;74.70;;;;;;7375531;19;20021;-79
2022/11/29 20:20:09;;;;;;;51.33;22.85;;;12.70;74.60;;;;;;7378444;19;20121;-80
2022/11/29 20:22:38;;;;;;;60.78;22.55;;;12.70;74.60;;;;;;7376120;19;20027;-80
2022/11/29 20:25:07;;;;;;;47.17;22.20;;;12.70;74.60;;;;;;7377390;19;20098;-79
2022/11/29 20:27:36;;;;;;;44.60;21.63;;;12.70;74.40;;;;;;7376925;19;20018;-80